Terminal Aerodrome Forecast
Issued by NWS Sioux Falls, SD

Home | Current Version | Previous Version | Graphics & Text | Print | Product List | Glossary Off
Versions: 1 2 3 4 5 6 7 8 9 10 11 12 13 14 15

000
FTUS43 KFSD 181508 AAA
TAFHON
TAF AMD
KHON 181508Z 1815/1912 15004KT P6SM OVC015
     FM181830 12005KT P6SM SKC
     FM181900 16009KT P6SM SKC
     FM190000 18011KT P6SM SCT250=

USA.gov is the U.S. government's official web portal to all federal, state and local government web resources and services.